sensor_id;sensor_type;location;lat;lon;timestamp;P1;durP1;ratioP1;P2;durP2;ratioP2
22015;SDS011;11172;51.698;-0.292;2022-07-10T00:01:28;755.03;;;457.38;;
22015;SDS011;11172;51.698;-0.292;2022-07-10T00:03:54;749.67;;;448.88;;
22015;SDS011;11172;51.698;-0.292;2022-07-10T00:06:20;754.67;;;449.48;;
22015;SDS011;11172;51.698;-0.292;2022-07-10T00:08:46;747.53;;;446.73;;
22015;SDS011;11172;51.698;-0.292;2022-07-10T00:11:12;749.35;;;442.90;;
22015;SDS011;11172;51.698;-0.292;2022-07-10T00:13:38;747.90;;;445.77;;
22015;SDS011;11172;51.698;-0.292;2022-07-10T00:16:04;743.33;;;427.23;;
22015;SDS011;11172;51.698;-0.292;2022-07-10T00:18:31;745.97;;;432.20;;
22015;SDS011;11172;51.698;-0.292;2022-07-10T00:20:57;751.80;;;438.50;;
22015;SDS011;11172;51.698;-0.292;2022-07-10T00:23:23;746.03;;;427.83;;
22015;SDS011;11172;51.698;-0.292;2022-07-10T00:25:49;748.22;;;426.83;;
22015;SDS011;11172;51.698;-0.292;2022-07-10T00:28:15;743.17;;;421.42;;
22015;SDS011;11172;51.698;-0.292;2022-07-10T00:30:41;742.92;;;421.10;;
22015;SDS011;11172;51.698;-0.292;2022-07-10T00:33:07;736.50;;;404.35;;
22015;SDS011;11172;51.698;-0.292;2022-07-10T00:35:33;738.60;;;409.52;;
22015;SDS011;11172;51.698;-0.292;2022-07-10T00:37:59;735.55;;;405.98;;
22015;SDS011;11172;51.698;-0.292;2022-07-10T00:40:25;742.58;;;405.83;;
22015;SDS011;11172;51.698;-0.292;2022-07-10T00:42:51;745.90;;;417.13;;
22015;SDS011;11172;51.698;-0.292;2022-07-10T00:45:18;736.28;;;404.70;;
22015;SDS011;11172;51.698;-0.292;2022-07-10T00:47:44;740.75;;;414.50;;
22015;SDS011;11172;51.698;-0.292;2022-07-10T00:50:10;738.53;;;412.27;;
22015;SDS011;11172;51.698;-0.292;2022-07-10T00:52:37;730.65;;;396.75;;
22015;SDS011;11172;51.698;-0.292;2022-07-10T00:55:04;745.78;;;410.10;;
22015;SDS011;11172;51.698;-0.292;2022-07-10T00:57:30;738.72;;;391.60;;
22015;SDS011;11172;51.698;-0.292;2022-07-10T00:59:57;747.28;;;393.55;;
22015;SDS011;11172;51.698;-0.292;2022-07-10T01:02:23;731.63;;;392.60;;
22015;SDS011;11172;51.698;-0.292;2022-07-10T01:04:50;733.55;;;396.67;;
22015;SDS011;11172;51.698;-0.292;2022-07-10T01:07:16;736.85;;;405.15;;
22015;SDS011;11172;51.698;-0.292;2022-07-10T01:09:43;742.05;;;403.58;;
22015;SDS011;11172;51.698;-0.292;2022-07-10T01:12:09;731.05;;;385.85;;
22015;SDS011;11172;51.698;-0.292;2022-07-10T01:14:36;735.92;;;383.92;;
22015;SDS011;11172;51.698;-0.292;2022-07-10T01:17:04;729.28;;;392.58;;
22015;SDS011;11172;51.698;-0.292;2022-07-10T01:19:31;726.35;;;378.95;;
22015;SDS011;11172;51.698;-0.292;2022-07-10T01:21:57;731.15;;;397.40;;
22015;SDS011;11172;51.698;-0.292;2022-07-10T01:24:23;734.28;;;393.48;;
22015;SDS011;11172;51.698;-0.292;2022-07-10T01:26:49;726.25;;;374.98;;
22015;SDS011;11172;51.698;-0.292;2022-07-10T01:29:15;727.85;;;381.85;;
22015;SDS011;11172;51.698;-0.292;2022-07-10T01:31:41;729.85;;;375.35;;
22015;SDS011;11172;51.698;-0.292;2022-07-10T01:34:08;725.90;;;372.10;;
22015;SDS011;11172;51.698;-0.292;2022-07-10T01:36:35;724.08;;;369.17;;
22015;SDS011;11172;51.698;-0.292;2022-07-10T01:39:01;730.88;;;379.42;;
22015;SDS011;11172;51.698;-0.292;2022-07-10T01:41:27;723.97;;;368.95;;
22015;SDS011;11172;51.698;-0.292;2022-07-10T01:43:53;728.75;;;371.67;;
22015;SDS011;11172;51.698;-0.292;2022-07-10T01:46:20;731.60;;;374.13;;
22015;SDS011;11172;51.698;-0.292;2022-07-10T01:48:46;729.47;;;378.90;;
22015;SDS011;11172;51.698;-0.292;2022-07-10T01:51:12;726.05;;;371.02;;
22015;SDS011;11172;51.698;-0.292;2022-07-10T01:53:38;722.55;;;369.50;;
22015;SDS011;11172;51.698;-0.292;2022-07-10T01:56:05;730.85;;;377.08;;
22015;SDS011;11172;51.698;-0.292;2022-07-10T01:58:31;733.60;;;381.35;;
22015;SDS011;11172;51.698;-0.292;2022-07-10T02:00:57;720.42;;;365.88;;
22015;SDS011;11172;51.698;-0.292;2022-07-10T02:03:23;726.05;;;372.17;;
22015;SDS011;11172;51.698;-0.292;2022-07-10T02:06:09;729.40;;;382.42;;
22015;SDS011;11172;51.698;-0.292;2022-07-10T02:08:35;723.10;;;366.92;;
22015;SDS011;11172;51.698;-0.292;2022-07-10T02:11:01;728.10;;;378.48;;
22015;SDS011;11172;51.698;-0.292;2022-07-10T02:13:27;723.35;;;370.52;;
22015;SDS011;11172;51.698;-0.292;2022-07-10T02:15:54;723.10;;;362.65;;
22015;SDS011;11172;51.698;-0.292;2022-07-10T02:18:20;725.35;;;363.40;;
22015;SDS011;11172;51.698;-0.292;2022-07-10T02:20:47;726.67;;;368.02;;
22015;SDS011;11172;51.698;-0.292;2022-07-10T02:23:13;729.08;;;375.92;;
22015;SDS011;11172;51.698;-0.292;2022-07-10T02:25:39;739.28;;;368.38;;
22015;SDS011;11172;51.698;-0.292;2022-07-10T02:28:07;726.03;;;374.52;;
22015;SDS011;11172;51.698;-0.292;2022-07-10T02:30:33;726.08;;;362.48;;
22015;SDS011;11172;51.698;-0.292;2022-07-10T02:32:59;728.42;;;369.17;;
22015;SDS011;11172;51.698;-0.292;2022-07-10T02:35:25;725.72;;;367.52;;
22015;SDS011;11172;51.698;-0.292;2022-07-10T02:37:51;719.20;;;357.25;;
22015;SDS011;11172;51.698;-0.292;2022-07-10T02:40:17;720.05;;;360.58;;
22015;SDS011;11172;51.698;-0.292;2022-07-10T02:42:43;720.72;;;351.05;;
22015;SDS011;11172;51.698;-0.292;2022-07-10T02:45:09;726.38;;;366.63;;
22015;SDS011;11172;51.698;-0.292;2022-07-10T02:47:36;726.33;;;364.92;;
22015;SDS011;11172;51.698;-0.292;2022-07-10T02:50:02;724.58;;;362.25;;
22015;SDS011;11172;51.698;-0.292;2022-07-10T02:52:28;723.95;;;360.13;;
22015;SDS011;11172;51.698;-0.292;2022-07-10T02:54:55;728.13;;;366.48;;
22015;SDS011;11172;51.698;-0.292;2022-07-10T02:57:22;725.20;;;363.05;;
22015;SDS011;11172;51.698;-0.292;2022-07-10T02:59:47;737.95;;;365.00;;
22015;SDS011;11172;51.698;-0.292;2022-07-10T03:02:13;722.97;;;352.67;;
22015;SDS011;11172;51.698;-0.292;2022-07-10T03:04:39;715.15;;;347.20;;
22015;SDS011;11172;51.698;-0.292;2022-07-10T03:07:06;719.05;;;344.90;;
22015;SDS011;11172;51.698;-0.292;2022-07-10T03:09:32;721.08;;;349.42;;
22015;SDS011;11172;51.698;-0.292;2022-07-10T03:11:58;717.28;;;351.52;;
22015;SDS011;11172;51.698;-0.292;2022-07-10T03:14:25;720.17;;;348.10;;
22015;SDS011;11172;51.698;-0.292;2022-07-10T03:16:51;715.97;;;341.80;;
22015;SDS011;11172;51.698;-0.292;2022-07-10T03:19:17;721.17;;;353.05;;
22015;SDS011;11172;51.698;-0.292;2022-07-10T03:21:43;713.83;;;342.65;;
22015;SDS011;11172;51.698;-0.292;2022-07-10T03:24:10;718.63;;;345.58;;
22015;SDS011;11172;51.698;-0.292;2022-07-10T03:26:36;717.15;;;349.88;;
22015;SDS011;11172;51.698;-0.292;2022-07-10T03:29:02;714.45;;;337.10;;
22015;SDS011;11172;51.698;-0.292;2022-07-10T03:31:28;723.10;;;350.85;;
22015;SDS011;11172;51.698;-0.292;2022-07-10T03:33:54;712.38;;;340.85;;
22015;SDS011;11172;51.698;-0.292;2022-07-10T03:36:20;713.83;;;331.33;;
22015;SDS011;11172;51.698;-0.292;2022-07-10T03:38:46;711.95;;;336.15;;
22015;SDS011;11172;51.698;-0.292;2022-07-10T03:41:15;710.00;;;335.75;;
22015;SDS011;11172;51.698;-0.292;2022-07-10T03:43:41;717.58;;;343.83;;
22015;SDS011;11172;51.698;-0.292;2022-07-10T03:46:07;713.95;;;333.05;;
22015;SDS011;11172;51.698;-0.292;2022-07-10T03:48:33;719.25;;;327.55;;
22015;SDS011;11172;51.698;-0.292;2022-07-10T03:50:59;721.85;;;340.52;;
22015;SDS011;11172;51.698;-0.292;2022-07-10T03:53:26;708.13;;;327.98;;
22015;SDS011;11172;51.698;-0.292;2022-07-10T03:55:52;716.35;;;344.08;;
22015;SDS011;11172;51.698;-0.292;2022-07-10T03:58:19;717.55;;;339.10;;
22015;SDS011;11172;51.698;-0.292;2022-07-10T04:00:45;713.50;;;329.73;;
22015;SDS011;11172;51.698;-0.292;2022-07-10T04:03:11;715.30;;;338.40;;
22015;SDS011;11172;51.698;-0.292;2022-07-10T04:05:38;726.13;;;333.55;;
22015;SDS011;11172;51.698;-0.292;2022-07-10T04:08:04;712.00;;;321.08;;
22015;SDS011;11172;51.698;-0.292;2022-07-10T04:10:31;711.58;;;333.05;;
22015;SDS011;11172;51.698;-0.292;2022-07-10T04:12:57;713.20;;;331.20;;
22015;SDS011;11172;51.698;-0.292;2022-07-10T04:15:23;715.80;;;333.35;;
22015;SDS011;11172;51.698;-0.292;2022-07-10T04:17:50;707.25;;;324.02;;
22015;SDS011;11172;51.698;-0.292;2022-07-10T04:20:16;712.63;;;328.23;;
22015;SDS011;11172;51.698;-0.292;2022-07-10T04:22:43;710.85;;;327.42;;
22015;SDS011;11172;51.698;-0.292;2022-07-10T04:25:09;716.13;;;332.13;;
22015;SDS011;11172;51.698;-0.292;2022-07-10T04:27:35;710.25;;;327.10;;
22015;SDS011;11172;51.698;-0.292;2022-07-10T04:30:02;721.20;;;352.40;;
22015;SDS011;11172;51.698;-0.292;2022-07-10T04:32:28;719.92;;;354.10;;
22015;SDS011;11172;51.698;-0.292;2022-07-10T04:34:55;720.53;;;362.95;;
22015;SDS011;11172;51.698;-0.292;2022-07-10T04:37:21;731.78;;;390.73;;
22015;SDS011;11172;51.698;-0.292;2022-07-10T04:39:47;744.13;;;422.92;;
22015;SDS011;11172;51.698;-0.292;2022-07-10T04:42:13;750.40;;;443.77;;
22015;SDS011;11172;51.698;-0.292;2022-07-10T04:44:39;756.25;;;451.92;;
22015;SDS011;11172;51.698;-0.292;2022-07-10T04:47:05;757.03;;;455.23;;
22015;SDS011;11172;51.698;-0.292;2022-07-10T04:49:32;756.65;;;462.48;;
22015;SDS011;11172;51.698;-0.292;2022-07-10T04:51:58;755.83;;;452.88;;
22015;SDS011;11172;51.698;-0.292;2022-07-10T04:54:24;764.03;;;472.73;;
22015;SDS011;11172;51.698;-0.292;2022-07-10T04:56:50;754.45;;;458.40;;
22015;SDS011;11172;51.698;-0.292;2022-07-10T04:59:16;752.85;;;446.80;;
22015;SDS011;11172;51.698;-0.292;2022-07-10T05:01:42;757.95;;;459.27;;
22015;SDS011;11172;51.698;-0.292;2022-07-10T05:04:08;744.47;;;426.30;;
22015;SDS011;11172;51.698;-0.292;2022-07-10T05:06:34;747.45;;;434.20;;
22015;SDS011;11172;51.698;-0.292;2022-07-10T05:09:01;744.13;;;418.05;;
22015;SDS011;11172;51.698;-0.292;2022-07-10T05:11:27;742.28;;;419.55;;
22015;SDS011;11172;51.698;-0.292;2022-07-10T05:13:53;743.40;;;420.08;;
22015;SDS011;11172;51.698;-0.292;2022-07-10T05:16:19;737.33;;;409.40;;
22015;SDS011;11172;51.698;-0.292;2022-07-10T05:18:45;740.38;;;408.98;;
22015;SDS011;11172;51.698;-0.292;2022-07-10T05:21:11;736.80;;;396.73;;
22015;SDS011;11172;51.698;-0.292;2022-07-10T05:23:37;740.25;;;406.02;;
22015;SDS011;11172;51.698;-0.292;2022-07-10T05:26:04;741.30;;;403.58;;
22015;SDS011;11172;51.698;-0.292;2022-07-10T05:28:30;750.92;;;427.98;;
22015;SDS011;11172;51.698;-0.292;2022-07-10T05:30:56;757.90;;;456.55;;
22015;SDS011;11172;51.698;-0.292;2022-07-10T05:33:22;770.40;;;497.10;;
22015;SDS011;11172;51.698;-0.292;2022-07-10T05:35:48;781.85;;;523.83;;
22015;SDS011;11172;51.698;-0.292;2022-07-10T05:38:14;798.90;;;564.28;;
22015;SDS011;11172;51.698;-0.292;2022-07-10T05:40:42;806.20;;;591.92;;
22015;SDS011;11172;51.698;-0.292;2022-07-10T05:43:08;820.20;;;626.78;;
22015;SDS011;11172;51.698;-0.292;2022-07-10T05:45:35;825.92;;;651.25;;
22015;SDS011;11172;51.698;-0.292;2022-07-10T05:48:02;846.65;;;703.33;;
22015;SDS011;11172;51.698;-0.292;2022-07-10T05:50:28;855.78;;;730.38;;
22015;SDS011;11172;51.698;-0.292;2022-07-10T05:52:55;882.63;;;769.85;;
22015;SDS011;11172;51.698;-0.292;2022-07-10T05:55:21;897.65;;;797.05;;
22015;SDS011;11172;51.698;-0.292;2022-07-10T05:57:48;939.75;;;838.45;;
22015;SDS011;11172;51.698;-0.292;2022-07-10T06:00:15;924.75;;;824.22;;
22015;SDS011;11172;51.698;-0.292;2022-07-10T06:02:41;913.35;;;814.00;;
22015;SDS011;11172;51.698;-0.292;2022-07-10T06:05:07;911.97;;;812.63;;
22015;SDS011;11172;51.698;-0.292;2022-07-10T06:07:33;880.28;;;781.67;;
22015;SDS011;11172;51.698;-0.292;2022-07-10T06:10:00;880.65;;;776.30;;
22015;SDS011;11172;51.698;-0.292;2022-07-10T06:12:26;863.65;;;760.25;;
22015;SDS011;11172;51.698;-0.292;2022-07-10T06:14:52;853.53;;;738.75;;
22015;SDS011;11172;51.698;-0.292;2022-07-10T06:17:18;866.50;;;752.85;;
22015;SDS011;11172;51.698;-0.292;2022-07-10T06:19:44;863.70;;;743.67;;
22015;SDS011;11172;51.698;-0.292;2022-07-10T06:22:10;865.00;;;748.72;;
22015;SDS011;11172;51.698;-0.292;2022-07-10T06:24:54;870.85;;;757.22;;
22015;SDS011;11172;51.698;-0.292;2022-07-10T06:27:20;880.45;;;777.95;;
22015;SDS011;11172;51.698;-0.292;2022-07-10T06:29:46;946.72;;;845.92;;
22015;SDS011;11172;51.698;-0.292;2022-07-10T06:32:12;999.22;;;895.03;;
22015;SDS011;11172;51.698;-0.292;2022-07-10T06:34:38;1057.25;;;949.28;;
22015;SDS011;11172;51.698;-0.292;2022-07-10T06:37:05;1119.75;;;996.88;;
22015;SDS011;11172;51.698;-0.292;2022-07-10T06:39:34;1180.05;;;999.90;;
22015;SDS011;11172;51.698;-0.292;2022-07-10T06:42:03;1232.28;;;999.90;;
22015;SDS011;11172;51.698;-0.292;2022-07-10T06:44:29;1275.18;;;999.90;;
22015;SDS011;11172;51.698;-0.292;2022-07-10T06:46:55;1307.43;;;999.90;;
22015;SDS011;11172;51.698;-0.292;2022-07-10T06:49:41;1316.93;;;999.90;;
22015;SDS011;11172;51.698;-0.292;2022-07-10T06:52:07;1314.13;;;999.90;;
22015;SDS011;11172;51.698;-0.292;2022-07-10T06:54:33;1286.38;;;999.90;;
22015;SDS011;11172;51.698;-0.292;2022-07-10T06:56:59;1288.47;;;999.90;;
22015;SDS011;11172;51.698;-0.292;2022-07-10T06:59:25;1280.22;;;999.90;;
22015;SDS011;11172;51.698;-0.292;2022-07-10T07:01:52;1282.10;;;999.90;;
22015;SDS011;11172;51.698;-0.292;2022-07-10T07:04:18;1275.25;;;999.90;;
22015;SDS011;11172;51.698;-0.292;2022-07-10T07:06:44;1290.68;;;999.90;;
22015;SDS011;11172;51.698;-0.292;2022-07-10T07:09:10;1292.55;;;999.90;;
22015;SDS011;11172;51.698;-0.292;2022-07-10T07:11:36;1293.80;;;999.90;;
22015;SDS011;11172;51.698;-0.292;2022-07-10T07:14:03;1309.53;;;999.90;;
22015;SDS011;11172;51.698;-0.292;2022-07-10T07:16:29;1310.32;;;999.90;;
22015;SDS011;11172;51.698;-0.292;2022-07-10T07:19:07;1311.63;;;999.90;;
22015;SDS011;11172;51.698;-0.292;2022-07-10T07:21:33;1317.40;;;999.90;;
22015;SDS011;11172;51.698;-0.292;2022-07-10T07:24:18;1326.43;;;999.90;;
22015;SDS011;11172;51.698;-0.292;2022-07-10T07:26:44;1324.15;;;999.90;;
22015;SDS011;11172;51.698;-0.292;2022-07-10T07:29:12;1326.40;;;999.90;;
22015;SDS011;11172;51.698;-0.292;2022-07-10T07:31:39;1332.25;;;999.90;;
22015;SDS011;11172;51.698;-0.292;2022-07-10T07:34:05;1326.55;;;999.90;;
22015;SDS011;11172;51.698;-0.292;2022-07-10T07:36:31;1329.40;;;999.90;;
22015;SDS011;11172;51.698;-0.292;2022-07-10T07:38:57;1329.90;;;999.90;;
22015;SDS011;11172;51.698;-0.292;2022-07-10T07:41:23;1335.63;;;999.90;;
22015;SDS011;11172;51.698;-0.292;2022-07-10T07:43:49;1339.38;;;999.90;;
22015;SDS011;11172;51.698;-0.292;2022-07-10T07:46:15;1341.00;;;999.90;;
22015;SDS011;11172;51.698;-0.292;2022-07-10T07:48:41;1344.38;;;999.90;;
22015;SDS011;11172;51.698;-0.292;2022-07-10T07:51:07;1354.10;;;999.90;;
22015;SDS011;11172;51.698;-0.292;2022-07-10T07:53:34;1353.50;;;999.90;;
22015;SDS011;11172;51.698;-0.292;2022-07-10T07:56:00;1358.03;;;999.90;;
22015;SDS011;11172;51.698;-0.292;2022-07-10T07:58:26;1357.90;;;999.90;;
22015;SDS011;11172;51.698;-0.292;2022-07-10T08:00:52;1361.97;;;999.90;;
22015;SDS011;11172;51.698;-0.292;2022-07-10T08:03:18;1358.88;;;999.90;;
22015;SDS011;11172;51.698;-0.292;2022-07-10T08:05:44;1359.85;;;999.90;;
22015;SDS011;11172;51.698;-0.292;2022-07-10T08:08:10;1360.95;;;999.90;;
22015;SDS011;11172;51.698;-0.292;2022-07-10T08:10:36;1364.82;;;999.90;;
22015;SDS011;11172;51.698;-0.292;2022-07-10T08:13:02;1361.05;;;999.90;;
22015;SDS011;11172;51.698;-0.292;2022-07-10T08:15:29;1361.38;;;999.90;;
22015;SDS011;11172;51.698;-0.292;2022-07-10T08:17:56;1365.90;;;999.90;;
22015;SDS011;11172;51.698;-0.292;2022-07-10T08:20:23;1370.28;;;999.90;;
22015;SDS011;11172;51.698;-0.292;2022-07-10T08:22:50;1369.20;;;999.90;;
22015;SDS011;11172;51.698;-0.292;2022-07-10T08:25:18;1372.82;;;999.90;;
22015;SDS011;11172;51.698;-0.292;2022-07-10T08:27:44;1374.13;;;999.90;;
22015;SDS011;11172;51.698;-0.292;2022-07-10T08:30:10;1378.40;;;999.90;;
22015;SDS011;11172;51.698;-0.292;2022-07-10T08:32:37;1377.72;;;999.90;;
22015;SDS011;11172;51.698;-0.292;2022-07-10T08:35:04;1379.80;;;999.90;;
22015;SDS011;11172;51.698;-0.292;2022-07-10T08:37:30;1379.88;;;999.90;;
22015;SDS011;11172;51.698;-0.292;2022-07-10T08:40:02;1391.35;;;999.90;;
22015;SDS011;11172;51.698;-0.292;2022-07-10T08:42:28;1388.63;;;999.90;;
22015;SDS011;11172;51.698;-0.292;2022-07-10T08:44:57;1387.28;;;999.90;;
22015;SDS011;11172;51.698;-0.292;2022-07-10T08:47:23;1390.05;;;999.90;;
22015;SDS011;11172;51.698;-0.292;2022-07-10T08:49:50;1390.78;;;999.90;;
22015;SDS011;11172;51.698;-0.292;2022-07-10T08:52:23;1387.53;;;999.90;;
22015;SDS011;11172;51.698;-0.292;2022-07-10T08:54:50;1391.80;;;999.90;;
22015;SDS011;11172;51.698;-0.292;2022-07-10T08:57:17;1394.80;;;999.90;;
22015;SDS011;11172;51.698;-0.292;2022-07-10T08:59:43;1395.10;;;999.90;;
22015;SDS011;11172;51.698;-0.292;2022-07-10T09:02:09;1396.63;;;999.90;;
22015;SDS011;11172;51.698;-0.292;2022-07-10T09:04:35;1391.63;;;999.90;;
22015;SDS011;11172;51.698;-0.292;2022-07-10T09:07:01;1391.80;;;999.90;;
22015;SDS011;11172;51.698;-0.292;2022-07-10T09:09:29;1385.53;;;999.90;;
22015;SDS011;11172;51.698;-0.292;2022-07-10T09:11:58;1385.22;;;999.90;;
22015;SDS011;11172;51.698;-0.292;2022-07-10T09:14:25;1385.05;;;999.90;;
22015;SDS011;11172;51.698;-0.292;2022-07-10T09:16:52;1386.57;;;999.90;;
22015;SDS011;11172;51.698;-0.292;2022-07-10T09:19:22;1389.60;;;999.90;;
22015;SDS011;11172;51.698;-0.292;2022-07-10T09:21:49;1385.75;;;999.90;;
22015;SDS011;11172;51.698;-0.292;2022-07-10T09:24:16;1385.20;;;999.90;;
22015;SDS011;11172;51.698;-0.292;2022-07-10T09:26:48;1383.40;;;999.90;;
22015;SDS011;11172;51.698;-0.292;2022-07-10T09:29:23;1386.35;;;999.90;;
22015;SDS011;11172;51.698;-0.292;2022-07-10T09:34:34;1390.93;;;999.90;;
22015;SDS011;11172;51.698;-0.292;2022-07-10T09:37:26;1387.88;;;999.90;;
22015;SDS011;11172;51.698;-0.292;2022-07-10T09:39:55;1394.65;;;999.90;;
22015;SDS011;11172;51.698;-0.292;2022-07-10T09:44:51;1394.88;;;999.90;;
22015;SDS011;11172;51.698;-0.292;2022-07-10T09:47:23;1393.03;;;999.90;;
22015;SDS011;11172;51.698;-0.292;2022-07-10T09:49:49;1385.43;;;999.90;;
22015;SDS011;11172;51.698;-0.292;2022-07-10T09:52:15;1389.68;;;999.90;;
22015;SDS011;11172;51.698;-0.292;2022-07-10T09:54:44;1385.20;;;999.90;;
22015;SDS011;11172;51.698;-0.292;2022-07-10T09:57:11;1385.57;;;999.90;;
22015;SDS011;11172;51.698;-0.292;2022-07-10T09:59:38;1387.97;;;999.90;;
22015;SDS011;11172;51.698;-0.292;2022-07-10T10:02:05;1382.72;;;999.90;;
22015;SDS011;11172;51.698;-0.292;2022-07-10T10:04:33;1381.22;;;999.90;;
22015;SDS011;11172;51.698;-0.292;2022-07-10T10:06:59;1387.40;;;999.90;;
22015;SDS011;11172;51.698;-0.292;2022-07-10T10:09:26;1380.78;;;999.90;;
22015;SDS011;11172;51.698;-0.292;2022-07-10T10:11:56;1383.63;;;999.90;;
22015;SDS011;11172;51.698;-0.292;2022-07-10T10:14:23;1382.43;;;999.90;;
22015;SDS011;11172;51.698;-0.292;2022-07-10T10:16:52;1380.35;;;999.90;;
22015;SDS011;11172;51.698;-0.292;2022-07-10T10:19:18;1380.38;;;999.90;;
22015;SDS011;11172;51.698;-0.292;2022-07-10T10:22:04;1382.75;;;999.90;;
22015;SDS011;11172;51.698;-0.292;2022-07-10T10:24:31;1377.78;;;999.90;;
22015;SDS011;11172;51.698;-0.292;2022-07-10T10:26:58;1382.43;;;999.90;;
22015;SDS011;11172;51.698;-0.292;2022-07-10T10:29:25;1383.78;;;999.90;;
22015;SDS011;11172;51.698;-0.292;2022-07-10T10:31:51;1383.78;;;999.90;;
22015;SDS011;11172;51.698;-0.292;2022-07-10T10:37:02;1387.15;;;999.90;;
22015;SDS011;11172;51.698;-0.292;2022-07-10T10:39:28;1388.10;;;999.90;;
22015;SDS011;11172;51.698;-0.292;2022-07-10T10:41:54;1391.30;;;999.90;;
22015;SDS011;11172;51.698;-0.292;2022-07-10T10:44:21;1397.97;;;999.90;;
22015;SDS011;11172;51.698;-0.292;2022-07-10T10:49:22;1387.90;;;999.90;;
22015;SDS011;11172;51.698;-0.292;2022-07-10T10:54:28;1383.82;;;999.90;;
22015;SDS011;11172;51.698;-0.292;2022-07-10T11:04:49;1374.97;;;999.90;;
22015;SDS011;11172;51.698;-0.292;2022-07-10T11:13:02;1345.40;;;999.90;;
22015;SDS011;11172;51.698;-0.292;2022-07-10T11:15:29;1337.15;;;999.90;;
22015;SDS011;11172;51.698;-0.292;2022-07-10T11:17:57;1331.88;;;999.90;;
22015;SDS011;11172;51.698;-0.292;2022-07-10T11:20:23;1323.80;;;999.90;;
22015;SDS011;11172;51.698;-0.292;2022-07-10T11:22:57;1337.10;;;999.90;;
22015;SDS011;11172;51.698;-0.292;2022-07-10T11:28:09;1341.35;;;999.90;;
22015;SDS011;11172;51.698;-0.292;2022-07-10T11:30:47;1349.50;;;999.90;;
22015;SDS011;11172;51.698;-0.292;2022-07-10T11:33:13;1350.82;;;999.90;;
22015;SDS011;11172;51.698;-0.292;2022-07-10T11:35:40;1345.80;;;999.90;;
22015;SDS011;11172;51.698;-0.292;2022-07-10T11:38:06;1345.18;;;999.90;;
22015;SDS011;11172;51.698;-0.292;2022-07-10T11:40:41;1333.53;;;999.90;;
22015;SDS011;11172;51.698;-0.292;2022-07-10T11:43:07;1322.60;;;999.90;;
22015;SDS011;11172;51.698;-0.292;2022-07-10T11:45:38;1324.13;;;999.90;;
22015;SDS011;11172;51.698;-0.292;2022-07-10T11:48:04;1311.40;;;999.90;;
22015;SDS011;11172;51.698;-0.292;2022-07-10T11:50:34;1312.93;;;999.90;;
22015;SDS011;11172;51.698;-0.292;2022-07-10T11:53:01;1318.97;;;999.90;;
22015;SDS011;11172;51.698;-0.292;2022-07-10T11:55:27;1312.68;;;999.90;;
22015;SDS011;11172;51.698;-0.292;2022-07-10T11:57:54;1305.75;;;999.90;;
22015;SDS011;11172;51.698;-0.292;2022-07-10T12:00:21;1311.53;;;999.90;;
22015;SDS011;11172;51.698;-0.292;2022-07-10T12:02:48;1311.47;;;999.90;;
22015;SDS011;11172;51.698;-0.292;2022-07-10T12:05:30;1317.35;;;999.90;;
22015;SDS011;11172;51.698;-0.292;2022-07-10T12:07:57;1326.80;;;999.90;;
22015;SDS011;11172;51.698;-0.292;2022-07-10T12:10:30;1353.88;;;999.90;;
22015;SDS011;11172;51.698;-0.292;2022-07-10T12:13:06;1513.20;;;999.90;;
22015;SDS011;11172;51.698;-0.292;2022-07-10T12:15:35;1286.47;;;999.90;;
22015;SDS011;11172;51.698;-0.292;2022-07-10T12:18:03;1056.65;;;959.47;;
22015;SDS011;11172;51.698;-0.292;2022-07-10T12:20:30;1044.72;;;948.00;;
22015;SDS011;11172;51.698;-0.292;2022-07-10T12:22:56;1093.78;;;995.70;;
22015;SDS011;11172;51.698;-0.292;2022-07-10T12:25:22;1215.40;;;999.90;;
22015;SDS011;11172;51.698;-0.292;2022-07-10T12:27:49;1227.55;;;999.90;;
22015;SDS011;11172;51.698;-0.292;2022-07-10T12:30:20;1232.40;;;999.90;;
22015;SDS011;11172;51.698;-0.292;2022-07-10T12:32:46;1240.45;;;999.90;;
22015;SDS011;11172;51.698;-0.292;2022-07-10T12:35:12;1287.63;;;999.90;;
22015;SDS011;11172;51.698;-0.292;2022-07-10T12:37:46;1294.70;;;999.90;;
22015;SDS011;11172;51.698;-0.292;2022-07-10T12:40:29;1285.88;;;999.90;;
22015;SDS011;11172;51.698;-0.292;2022-07-10T12:43:05;1318.60;;;999.90;;
22015;SDS011;11172;51.698;-0.292;2022-07-10T12:45:31;1370.90;;;999.90;;
22015;SDS011;11172;51.698;-0.292;2022-07-10T12:47:58;1430.00;;;999.90;;
22015;SDS011;11172;51.698;-0.292;2022-07-10T12:50:25;1397.53;;;999.90;;
22015;SDS011;11172;51.698;-0.292;2022-07-10T12:53:24;1412.25;;;999.90;;
22015;SDS011;11172;51.698;-0.292;2022-07-10T12:55:44;1415.30;;;999.90;;
22015;SDS011;11172;51.698;-0.292;2022-07-10T12:58:11;1416.85;;;999.90;;
22015;SDS011;11172;51.698;-0.292;2022-07-10T13:00:44;1429.72;;;999.90;;
22015;SDS011;11172;51.698;-0.292;2022-07-10T13:03:16;1445.43;;;999.90;;
22015;SDS011;11172;51.698;-0.292;2022-07-10T13:05:44;1450.75;;;999.90;;
22015;SDS011;11172;51.698;-0.292;2022-07-10T13:08:11;1399.45;;;999.90;;
22015;SDS011;11172;51.698;-0.292;2022-07-10T13:10:42;1370.90;;;999.90;;
22015;SDS011;11172;51.698;-0.292;2022-07-10T13:13:08;1345.03;;;999.90;;
22015;SDS011;11172;51.698;-0.292;2022-07-10T13:15:34;1335.95;;;999.90;;
22015;SDS011;11172;51.698;-0.292;2022-07-10T13:18:14;1319.07;;;999.90;;
22015;SDS011;11172;51.698;-0.292;2022-07-10T13:20:42;1317.95;;;999.90;;
22015;SDS011;11172;51.698;-0.292;2022-07-10T13:23:08;1324.88;;;999.90;;
22015;SDS011;11172;51.698;-0.292;2022-07-10T13:25:34;1314.93;;;999.90;;
22015;SDS011;11172;51.698;-0.292;2022-07-10T13:28:02;1308.82;;;999.90;;
22015;SDS011;11172;51.698;-0.292;2022-07-10T13:30:28;1311.30;;;999.90;;
22015;SDS011;11172;51.698;-0.292;2022-07-10T13:32:54;1311.50;;;999.90;;
22015;SDS011;11172;51.698;-0.292;2022-07-10T13:35:20;1299.35;;;999.90;;
22015;SDS011;11172;51.698;-0.292;2022-07-10T13:37:46;1305.32;;;999.90;;
22015;SDS011;11172;51.698;-0.292;2022-07-10T13:40:12;1305.45;;;999.90;;
22015;SDS011;11172;51.698;-0.292;2022-07-10T13:42:38;1299.95;;;999.90;;
22015;SDS011;11172;51.698;-0.292;2022-07-10T13:45:04;1295.10;;;999.90;;
22015;SDS011;11172;51.698;-0.292;2022-07-10T13:47:30;1293.20;;;999.90;;
22015;SDS011;11172;51.698;-0.292;2022-07-10T13:49:56;1302.95;;;999.90;;
22015;SDS011;11172;51.698;-0.292;2022-07-10T13:52:22;1298.75;;;999.90;;
22015;SDS011;11172;51.698;-0.292;2022-07-10T13:54:48;1308.75;;;999.90;;
22015;SDS011;11172;51.698;-0.292;2022-07-10T13:57:14;1292.80;;;999.90;;
22015;SDS011;11172;51.698;-0.292;2022-07-10T13:59:40;1287.75;;;999.90;;
22015;SDS011;11172;51.698;-0.292;2022-07-10T14:02:06;1295.07;;;999.90;;
22015;SDS011;11172;51.698;-0.292;2022-07-10T14:04:32;1293.65;;;999.90;;
22015;SDS011;11172;51.698;-0.292;2022-07-10T14:06:58;1292.38;;;999.90;;
22015;SDS011;11172;51.698;-0.292;2022-07-10T14:09:24;1298.95;;;999.90;;